Latest Weather Observations for Creal Reef

IDQ60801

Issued at 6:02 pm EST Sunday 26 June 2016 (issued every 30 minutes, with the page automatically refreshed every 10 minutes)

About weather observations | Map of weather stations | Latest weather observations for QLD | Other Formats
Station Details ID: 200736 Name: CREAL REEF Lat: -20.53 Lon: 150.38 Height: 1.7 m
Data from the previous 72 hours. | See also: Recent months for locations in Queensland
Date/Time
EST
Temp
°C
App
Temp
°C
Dew
Point
°C
Rel
Hum
%
Delta-T
°C
Wind Press
QNH
hPa
Press
MSL
hPa
Rain since
9am
mm
Dir  Spd
km/h
Gust
km/h
Spd
kts
Gust
kts
26/06:00pm 23.1 - - - - ESE 20 24 11 13 - - -
26/05:30pm 23.0 - - - - ESE 20 26 11 14 - - -
26/05:20pm 23.0 - - - - E 20 - 11 - - - -
26/05:00pm 23.1 - - - - ESE 19 24 10 13 - - -
26/04:30pm 22.8 - - - - SE 20 26 11 14 - - -
26/04:20pm 23.0 - - - - SE 20 - 11 - - - -
26/04:00pm 22.8 - - - - SE 20 28 11 15 - - -
26/03:30pm 22.7 - - - - ESE 20 22 11 12 - - -
26/03:20pm 22.9 - - - - ESE 20 - 11 - - - -
26/03:00pm 22.7 - - - - ESE 20 24 11 13 - - -
26/02:30pm 22.5 - - - - ESE 22 28 12 15 - - -
26/02:20pm 22.4 - - - - ESE 22 - 12 - - - -
26/02:00pm 22.5 - - - - ESE 24 30 13 16 - - -
26/01:30pm 22.7 - - - - ESE 24 30 13 16 - - -
26/01:20pm 22.4 - - - - ESE 24 - 13 - - - -
26/01:00pm 22.3 - - - - ESE 24 30 13 16 - - -
26/12:30pm 22.4 - - - - SE 26 32 14 17 - - -
26/12:20pm 22.4 - - - - SE 26 - 14 - - - -
26/12:00pm 22.2 - - - - SE 26 32 14 17 - - -
26/11:30am 22.1 - - - - SE 26 30 14 16 - - -
26/11:20am 22.3 - - - - SE 26 - 14 - - - -
26/11:00am 22.1 - - - - SE 24 30 13 16 - - -
26/10:30am 22.2 - - - - SE 22 30 12 16 - - -
26/10:20am 22.1 - - - - SE 22 - 12 - - - -
26/10:00am 21.9 - - - - SSE 24 30 13 16 - - -
26/09:30am 21.8 - - - - SE 22 26 12 14 - - -
26/09:20am 21.7 - - - - SE 22 - 12 - - - -
26/09:00am 21.7 - - - - SE 22 26 12 14 - - -
26/08:30am 21.7 - - - - SE 22 28 12 15 - - -
26/08:20am 21.5 - - - - SE 22 - 12 - - - -
26/08:00am 21.7 - - - - SE 20 26 11 14 - - -
26/07:30am 21.3 - - - - SE 22 26 12 14 - - -
26/07:20am 21.5 - - - - SE 20 - 11 - - - -
26/07:00am 21.2 - - - - SE 22 28 12 15 - - -
26/06:30am 21.2 - - - - SE 22 28 12 15 - - -
26/06:20am 21.1 - - - - SE 22 - 12 - - - -
26/06:00am 21.2 - - - - SE 22 28 12 15 - - -
26/05:30am 21.2 - - - - SE 24 30 13 16 - - -
26/05:20am 21.1 - - - - SE 24 - 13 - - - -
26/05:00am 21.2 - - - - ESE 24 30 13 16 - - -
26/04:30am 21.2 - - - - ESE 24 32 13 17 - - -
26/04:20am 21.1 - - - - ESE 24 - 13 - - - -
26/04:00am 21.0 - - - - SE 24 32 13 17 - - -
26/03:30am 21.2 - - - - ESE 26 32 14 17 - - -
26/03:20am 21.2 - - - - SE 26 - 14 - - - -
26/03:00am 21.0 - - - - SE 26 33 14 18 - - -
26/02:30am 21.2 - - - - ESE 22 30 12 16 - - -
26/02:20am 21.1 - - - - SE 24 - 13 - - - -
26/02:00am 21.3 - - - - SE 22 26 12 14 - - -
26/01:30am 21.1 - - - - ESE 24 28 13 15 - - -
26/01:20am 21.5 - - - - SE 24 - 13 - - - -
26/01:00am 21.4 - - - - SE 22 30 12 16 - - -
26/12:30am 21.3 - - - - SE 22 28 12 15 - - -
26/12:20am 21.3 - - - - SE 24 - 13 - - - -
26/12:00am 21.3 - - - - SE 22 30 12 16 - - -
 
Date/Time
EST
Temp
°C
App
Temp
°C
Dew
Point
°C
Rel
Hum
%
Delta-T
°C
Wind Press
QNH
hPa
Press
MSL
hPa
Rain since
9am
mm
Dir  Spd
km/h
Gust
km/h
Spd
kts
Gust
kts
25/11:30pm 21.4 - - - - SE 22 28 12 15 - - -
25/11:20pm 21.2 - - - - SE 24 - 13 - - - -
25/11:00pm 21.2 - - - - SE 24 30 13 16 - - -
25/10:30pm 21.2 - - - - SE 24 30 13 16 - - -
25/10:20pm 21.2 - - - - SE 24 - 13 - - - -
25/10:00pm 21.4 - - - - SE 24 30 13 16 - - -
25/09:30pm 21.4 - - - - SE 24 30 13 16 - - -
25/09:20pm 21.1 - - - - SE 24 - 13 - - - -
25/09:00pm 21.2 - - - - SE 26 30 14 16 - - -
25/08:30pm 21.1 - - - - SSE 28 33 15 18 - - -
25/08:20pm 21.0 - - - - SSE 26 - 14 - - - -
25/08:00pm 21.2 - - - - SSE 28 33 15 18 - - -
25/07:30pm 21.2 - - - - SSE 28 35 15 19 - - -
25/07:20pm 21.2 - - - - SSE 28 - 15 - - - -
25/07:00pm 21.2 - - - - SSE 30 37 16 20 - - -
25/06:30pm 21.0 - - - - SSE 28 35 15 19 - - -
25/06:20pm 21.1 - - - - SSE 28 - 15 - - - -
25/06:00pm 21.2 - - - - SSE 26 33 14 18 - - -
25/05:30pm 21.0 - - - - SSE 30 37 16 20 - - -
25/05:20pm 21.0 - - - - SSE 32 - 17 - - - -
25/05:00pm 21.1 - - - - SSE 30 37 16 20 - - -
25/04:30pm 21.4 - - - - SSE 32 39 17 21 - - -
25/04:20pm 21.1 - - - - SSE 32 - 17 - - - -
25/04:00pm 21.1 - - - - SSE 30 39 16 21 - - -
25/03:30pm 21.2 - - - - SSE 33 41 18 22 - - -
25/03:20pm 21.0 - - - - SSE 33 - 18 - - - -
25/03:00pm 20.9 - - - - SSE 33 43 18 23 - - -
25/02:30pm 20.9 - - - - SSE 35 43 19 23 - - -
25/02:20pm 20.7 - - - - SSE 39 - 21 - - - -
25/02:00pm 21.0 - - - - SSE 39 46 21 25 - - -
25/01:30pm 20.9 - - - - SSE 39 46 21 25 - - -
25/01:20pm 21.1 - - - - S 37 - 20 - - - -
25/01:00pm 21.0 - - - - SSE 37 46 20 25 - - -
25/12:30pm 21.0 - - - - SSE 37 46 20 25 - - -
25/12:20pm 21.1 - - - - S 41 - 22 - - - -
25/12:00pm 21.2 - - - - SSE 41 50 22 27 - - -
25/11:30am 21.5 - - - - SSE 39 46 21 25 - - -
25/11:20am 21.6 - - - - SSE 39 - 21 - - - -
25/11:00am 21.7 - - - - SSE 37 44 20 24 - - -
25/10:30am 21.8 - - - - SSE 41 48 22 26 - - -
25/10:20am 21.6 - - - - S 43 - 23 - - - -
25/10:00am 22.1 - - - - S 43 50 23 27 - - -
25/09:30am 22.2 - - - - S 41 48 22 26 - - -
25/09:20am 22.0 - - - - S 41 - 22 - - - -
25/09:00am 22.2 - - - - S 39 44 21 24 - - -
25/08:30am 22.7 - - - - S 41 50 22 27 - - -
25/08:20am 22.8 - - - - S 43 - 23 - - - -
25/08:00am 22.9 - - - - S 41 46 22 25 - - -
25/07:30am 23.0 - - - - S 41 46 22 25 - - -
25/07:20am 22.8 - - - - S 41 - 22 - - - -
25/07:00am 23.0 - - - - S 41 46 22 25 - - -
25/06:30am 23.7 - - - - S 35 43 19 23 - - -
25/06:20am 23.9 - - - - S 35 - 19 - - - -
25/06:00am 23.9 - - - - SSW 37 41 20 22 - - -
25/05:30am 24.4 - - - - SSW 33 37 18 20 - - -
25/05:20am 24.6 - - - - SSW 30 - 16 - - - -
25/05:00am 24.6 - - - - S 32 35 17 19 - - -
25/04:30am 24.7 - - - - S 28 33 15 18 - - -
25/04:20am 24.7 - - - - S 26 - 14 - - - -
25/04:00am 24.5 - - - - SSW 22 26 12 14 - - -
25/03:30am 24.7 - - - - S 22 24 12 13 - - -
25/03:20am 24.7 - - - - S 22 - 12 - - - -
25/03:00am 24.7 - - - - S 24 26 13 14 - - -
25/02:30am 24.4 - - - - SSW 22 26 12 14 - - -
25/02:20am 24.3 - - - - SSW 20 - 11 - - - -
25/02:00am 24.1 - - - - SSW 17 19 9 10 - - -
25/01:30am 24.3 - - - - SSW 15 15 8 8 - - -
25/01:20am 24.4 - - - - SSW 13 - 7 - - - -
25/01:00am 24.4 - - - - SW 11 11 6 6 - - -
25/12:30am 24.3 - - - - SW 11 11 6 6 - - -
25/12:20am 24.2 - - - - SW 11 - 6 - - - -
25/12:00am 24.3 - - - - SW 13 15 7 8 - - -
 
Date/Time
EST
Temp
°C
App
Temp
°C
Dew
Point
°C
Rel
Hum
%
Delta-T
°C
Wind Press
QNH
hPa
Press
MSL
hPa
Rain since
9am
mm
Dir  Spd
km/h
Gust
km/h
Spd
kts
Gust
kts
24/11:30pm 24.4 - - - - SW 13 13 7 7 - - -
24/11:20pm 24.4 - - - - SW 11 - 6 - - - -
24/11:00pm 24.3 - - - - SW 13 15 7 8 - - -
24/10:30pm 24.6 - - - - SW 11 13 6 7 - - -
24/10:20pm 24.6 - - - - SW 13 - 7 - - - -
24/10:00pm 24.3 - - - - SW 11 13 6 7 - - -
24/09:30pm 23.9 - - - - SW 9 13 5 7 - - -
24/09:20pm 23.7 - - - - W 4 - 2 - - - -
24/09:00pm 23.5 - - - - W 19 28 10 15 - - -
24/08:30pm 23.9 - - - - SSW 15 20 8 11 - - -
24/08:20pm 24.5 - - - - S 17 - 9 - - - -
24/08:00pm 24.5 - - - - S 15 17 8 9 - - -
24/07:30pm 24.5 - - - - CALM 0 0 0 0 - - -
24/07:20pm 24.5 - - - - CALM 0 - 0 - - - -
24/07:00pm 24.6 - - - - CALM 0 0 0 0 - - -
24/06:30pm 24.6 - - - - CALM 0 0 0 0 - - -
24/06:20pm 24.6 - - - - CALM 0 - 0 - - - -
24/06:00pm 24.7 - - - - CALM 0 0 0 0 - - -
24/05:30pm 24.9 - - - - CALM 0 0 0 0 - - -
24/05:20pm 25.2 - - - - N 2 - 1 - - - -
24/05:00pm 25.0 - - - - NNE 7 11 4 6 - - -
24/04:30pm 25.1 - - - - N 9 11 5 6 - - -
24/04:20pm 25.1 - - - - N 9 - 5 - - - -
24/04:00pm 25.1 - - - - N 7 11 4 6 - - -
24/03:30pm 25.2 - - - - N 6 9 3 5 - - -
24/03:20pm 25.2 - - - - N 7 - 4 - - - -
24/03:00pm 25.5 - - - - NW 7 9 4 5 - - -
24/02:30pm 26.0 - - - - WNW 7 9 4 5 - - -
24/02:20pm 25.5 - - - - WNW 7 - 4 - - - -
24/02:00pm 25.6 - - - - W 11 13 6 7 - - -
24/01:30pm 25.5 - - - - WSW 13 15 7 8 - - -
24/01:20pm 25.5 - - - - WSW 11 - 6 - - - -
24/01:00pm 25.4 - - - - WSW 15 17 8 9 - - -
24/12:30pm 25.7 - - - - W 13 15 7 8 - - -
24/12:20pm 25.7 - - - - W 13 - 7 - - - -
24/12:00pm 25.8 - - - - W 11 13 6 7 - - -
24/11:30am 25.7 - - - - W 15 15 8 8 - - -
24/11:20am 25.7 - - - - W 13 - 7 - - - -
24/11:00am 25.9 - - - - W 9 13 5 7 - - -
24/10:30am 25.9 - - - - W 11 13 6 7 - - -
24/10:20am 25.7 - - - - W 11 - 6 - - - -
24/10:00am 25.7 - - - - W 11 15 6 8 - - -
24/09:30am 25.4 - - - - NNW 9 11 5 6 - - -
24/09:20am 25.4 - - - - NNW 9 - 5 - - - -
24/09:00am 25.4 - - - - NNW 7 9 4 5 - - -
24/08:30am 24.9 - - - - N 11 13 6 7 - - -
24/08:20am 24.9 - - - - N 13 - 7 - - - -
24/08:00am 24.9 - - - - NNE 11 13 6 7 - - -
24/07:30am 24.9 - - - - NNE 15 17 8 9 - - -
24/07:20am 24.9 - - - - NNE 15 - 8 - - - -
24/07:00am 24.8 - - - - NNE 17 19 9 10 - - -
24/06:30am 24.7 - - - - N 13 17 7 9 - - -
24/06:20am 24.7 - - - - N 15 - 8 - - - -
24/06:00am 24.7 - - - - N 15 17 8 9 - - -
24/05:30am 24.7 - - - - N 13 15 7 8 - - -
24/05:20am 24.7 - - - - N 13 - 7 - - - -
24/05:00am 24.7 - - - - NNE 15 20 8 11 - - -
24/04:30am 24.7 - - - - NNE 19 22 10 12 - - -
24/04:20am 24.6 - - - - NNE 13 - 7 - - - -
24/04:00am 24.6 - - - - NNE 11 13 6 7 - - -
24/03:30am 24.7 - - - - NNE 9 11 5 6 - - -
24/03:20am 24.7 - - - - NE 7 - 4 - - - -
24/03:00am 24.7 - - - - NE 19 22 10 12 - - -
24/02:30am 24.7 - - - - ENE 13 15 7 8 - - -
24/02:20am 24.6 - - - - E 11 - 6 - - - -
24/02:00am 24.6 - - - - E 9 11 5 6 - - -
24/01:30am 24.7 - - - - E 9 9 5 5 - - -
24/01:20am 24.7 - - - - E 9 - 5 - - - -
24/01:00am 24.8 - - - - E 9 11 5 6 - - -
24/12:30am 24.8 - - - - ENE 11 11 6 6 - - -
24/12:20am 24.8 - - - - ENE 13 - 7 - - - -
24/12:00am 24.7 - - - - ENE 13 15 7 8 - - -
 
Date/Time
EST
Temp
°C
App
Temp
°C
Dew
Point
°C
Rel
Hum
%
Delta-T
°C
Wind Press
QNH
hPa
Press
MSL
hPa
Rain since
9am
mm
Dir  Spd
km/h
Gust
km/h
Spd
kts
Gust
kts
23/11:30pm 24.7 - - - - ENE 15 17 8 9 - - -
23/11:20pm 24.7 - - - - ENE 15 - 8 - - - -
23/11:00pm 24.7 - - - - ENE 17 19 9 10 - - -
23/10:30pm 24.6 - - - - ENE 19 20 10 11 - - -
23/10:20pm 24.6 - - - - ENE 19 - 10 - - - -
23/10:00pm 24.6 - - - - ENE 20 24 11 13 - - -
23/09:30pm 24.6 - - - - E 20 24 11 13 - - -
23/09:20pm 24.4 - - - - E 22 - 12 - - - -
23/09:00pm 24.5 - - - - ENE 22 24 12 13 - - -
23/08:30pm 24.5 - - - - E 20 24 11 13 - - -
23/08:20pm 24.4 - - - - E 20 - 11 - - - -
23/08:00pm 24.3 - - - - E 20 24 11 13 - - -
23/07:30pm 24.3 - - - - E 19 20 10 11 - - -
23/07:20pm 24.1 - - - - E 19 - 10 - - - -
23/07:00pm 24.3 - - - - E 20 24 11 13 - - -
23/06:30pm 24.1 - - - - E 20 22 11 12 - - -
23/06:20pm 24.1 - - - - E 19 - 10 - - - -

Other Formats:

Comma delimited format used in spreadsheet applications
http://www.bom.gov.au/fwo/IDQ60801/IDQ60801.94371.axf

JavaScript Object Notation format (JSON) in row-major order
http://www.bom.gov.au/fwo/IDQ60801/IDQ60801.94371.json